sensor_id;sensor_type;location;lat;lon;timestamp;temperature;humidity
16958;DHT22;8595;52.542;11.974;2022-09-01T00:01:47;18.00;99.90
16958;DHT22;8595;52.542;11.974;2022-09-01T00:04:16;18.00;99.90
16958;DHT22;8595;52.542;11.974;2022-09-01T00:06:44;18.00;99.90
16958;DHT22;8595;52.542;11.974;2022-09-01T00:09:14;18.00;99.90
16958;DHT22;8595;52.542;11.974;2022-09-01T00:11:44;18.00;99.90
16958;DHT22;8595;52.542;11.974;2022-09-01T00:14:13;18.00;99.90
16958;DHT22;8595;52.542;11.974;2022-09-01T00:16:40;18.00;99.90
16958;DHT22;8595;52.542;11.974;2022-09-01T00:19:07;18.00;99.90
16958;DHT22;8595;52.542;11.974;2022-09-01T00:21:36;18.00;99.90
16958;DHT22;8595;52.542;11.974;2022-09-01T00:24:04;18.00;99.90
16958;DHT22;8595;52.542;11.974;2022-09-01T00:26:31;18.10;99.90
16958;DHT22;8595;52.542;11.974;2022-09-01T00:28:58;18.10;99.90
16958;DHT22;8595;52.542;11.974;2022-09-01T00:31:26;18.20;99.90
16958;DHT22;8595;52.542;11.974;2022-09-01T00:33:54;18.10;99.90
16958;DHT22;8595;52.542;11.974;2022-09-01T00:36:21;18.00;99.90
16958;DHT22;8595;52.542;11.974;2022-09-01T00:38:49;18.00;99.90
16958;DHT22;8595;52.542;11.974;2022-09-01T00:41:17;18.00;99.90
16958;DHT22;8595;52.542;11.974;2022-09-01T00:43:46;18.00;99.90
16958;DHT22;8595;52.542;11.974;2022-09-01T00:46:15;18.00;99.90
16958;DHT22;8595;52.542;11.974;2022-09-01T00:48:44;18.00;99.90
16958;DHT22;8595;52.542;11.974;2022-09-01T00:51:12;18.00;99.90
16958;DHT22;8595;52.542;11.974;2022-09-01T00:53:40;18.00;99.90
16958;DHT22;8595;52.542;11.974;2022-09-01T00:56:08;18.00;99.90
16958;DHT22;8595;52.542;11.974;2022-09-01T00:58:36;18.10;99.90
16958;DHT22;8595;52.542;11.974;2022-09-01T01:01:05;18.00;99.90
16958;DHT22;8595;52.542;11.974;2022-09-01T01:03:32;18.10;99.90
16958;DHT22;8595;52.542;11.974;2022-09-01T01:06:02;18.00;99.90
16958;DHT22;8595;52.542;11.974;2022-09-01T01:08:34;18.00;99.90
16958;DHT22;8595;52.542;11.974;2022-09-01T01:11:02;18.00;99.90
16958;DHT22;8595;52.542;11.974;2022-09-01T01:13:29;18.00;99.90
16958;DHT22;8595;52.542;11.974;2022-09-01T01:16:00;18.00;99.90
16958;DHT22;8595;52.542;11.974;2022-09-01T01:18:27;18.00;99.90
16958;DHT22;8595;52.542;11.974;2022-09-01T01:21:00;18.00;99.90
16958;DHT22;8595;52.542;11.974;2022-09-01T01:23:52;18.00;99.90
16958;DHT22;8595;52.542;11.974;2022-09-01T01:26:24;18.00;99.90
16958;DHT22;8595;52.542;11.974;2022-09-01T01:28:51;18.00;99.90
16958;DHT22;8595;52.542;11.974;2022-09-01T01:31:18;18.00;99.90
16958;DHT22;8595;52.542;11.974;2022-09-01T01:33:49;18.00;99.90
16958;DHT22;8595;52.542;11.974;2022-09-01T01:36:19;18.00;99.90
16958;DHT22;8595;52.542;11.974;2022-09-01T01:38:51;18.00;99.90
16958;DHT22;8595;52.542;11.974;2022-09-01T01:41:20;18.00;99.90
16958;DHT22;8595;52.542;11.974;2022-09-01T01:43:49;18.00;99.90
16958;DHT22;8595;52.542;11.974;2022-09-01T01:46:16;18.00;99.90
16958;DHT22;8595;52.542;11.974;2022-09-01T01:48:43;18.00;99.90
16958;DHT22;8595;52.542;11.974;2022-09-01T01:51:11;17.90;99.90
16958;DHT22;8595;52.542;11.974;2022-09-01T01:53:38;17.90;99.90
16958;DHT22;8595;52.542;11.974;2022-09-01T01:56:05;17.90;99.90
16958;DHT22;8595;52.542;11.974;2022-09-01T01:58:33;17.90;99.90
16958;DHT22;8595;52.542;11.974;2022-09-01T02:01:01;17.90;99.90
16958;DHT22;8595;52.542;11.974;2022-09-01T02:03:32;17.90;99.90
16958;DHT22;8595;52.542;11.974;2022-09-01T02:06:03;17.90;99.90
16958;DHT22;8595;52.542;11.974;2022-09-01T02:08:33;17.90;99.90
16958;DHT22;8595;52.542;11.974;2022-09-01T02:11:01;17.80;99.90
16958;DHT22;8595;52.542;11.974;2022-09-01T02:13:28;17.80;99.90
16958;DHT22;8595;52.542;11.974;2022-09-01T02:15:57;17.70;99.90
16958;DHT22;8595;52.542;11.974;2022-09-01T02:18:29;17.90;99.90
16958;DHT22;8595;52.542;11.974;2022-09-01T02:20:59;17.80;99.90
16958;DHT22;8595;52.542;11.974;2022-09-01T02:23:26;17.70;99.90
16958;DHT22;8595;52.542;11.974;2022-09-01T02:25:56;17.70;99.90
16958;DHT22;8595;52.542;11.974;2022-09-01T02:28:25;17.70;99.90
16958;DHT22;8595;52.542;11.974;2022-09-01T02:30:53;17.60;99.90
16958;DHT22;8595;52.542;11.974;2022-09-01T02:33:22;17.50;99.90
16958;DHT22;8595;52.542;11.974;2022-09-01T02:35:53;17.50;99.90
16958;DHT22;8595;52.542;11.974;2022-09-01T02:38:20;17.50;99.90
16958;DHT22;8595;52.542;11.974;2022-09-01T02:40:51;17.50;99.90
16958;DHT22;8595;52.542;11.974;2022-09-01T02:43:19;17.50;99.90
16958;DHT22;8595;52.542;11.974;2022-09-01T02:45:46;17.50;99.90
16958;DHT22;8595;52.542;11.974;2022-09-01T02:48:17;17.60;99.90
16958;DHT22;8595;52.542;11.974;2022-09-01T02:50:47;17.60;99.90
16958;DHT22;8595;52.542;11.974;2022-09-01T02:53:15;17.50;99.90
16958;DHT22;8595;52.542;11.974;2022-09-01T02:55:42;17.50;99.90
16958;DHT22;8595;52.542;11.974;2022-09-01T02:58:09;17.50;99.90
16958;DHT22;8595;52.542;11.974;2022-09-01T03:00:40;17.50;99.90
16958;DHT22;8595;52.542;11.974;2022-09-01T03:03:08;17.50;99.90
16958;DHT22;8595;52.542;11.974;2022-09-01T03:05:38;17.50;99.90
16958;DHT22;8595;52.542;11.974;2022-09-01T03:08:08;17.50;99.90
16958;DHT22;8595;52.542;11.974;2022-09-01T03:10:39;17.50;99.90
16958;DHT22;8595;52.542;11.974;2022-09-01T03:13:07;17.40;99.90
16958;DHT22;8595;52.542;11.974;2022-09-01T03:15:36;17.40;99.90
16958;DHT22;8595;52.542;11.974;2022-09-01T03:18:04;17.50;99.90
16958;DHT22;8595;52.542;11.974;2022-09-01T03:20:33;17.40;99.90
16958;DHT22;8595;52.542;11.974;2022-09-01T03:23:01;17.40;99.90
16958;DHT22;8595;52.542;11.974;2022-09-01T03:25:29;17.40;99.90
16958;DHT22;8595;52.542;11.974;2022-09-01T03:27:57;17.40;99.90
16958;DHT22;8595;52.542;11.974;2022-09-01T03:30:26;17.40;99.90
16958;DHT22;8595;52.542;11.974;2022-09-01T03:32:54;17.40;99.90
16958;DHT22;8595;52.542;11.974;2022-09-01T03:35:21;17.40;99.90
16958;DHT22;8595;52.542;11.974;2022-09-01T03:37:48;17.30;99.90
16958;DHT22;8595;52.542;11.974;2022-09-01T03:40:15;17.20;99.90
16958;DHT22;8595;52.542;11.974;2022-09-01T03:42:43;17.10;99.90
16958;DHT22;8595;52.542;11.974;2022-09-01T03:45:12;17.10;99.90
16958;DHT22;8595;52.542;11.974;2022-09-01T03:47:41;17.10;99.90
16958;DHT22;8595;52.542;11.974;2022-09-01T03:50:13;17.10;99.90
16958;DHT22;8595;52.542;11.974;2022-09-01T03:52:44;17.00;99.90
16958;DHT22;8595;52.542;11.974;2022-09-01T03:55:13;16.90;99.90
16958;DHT22;8595;52.542;11.974;2022-09-01T03:57:42;16.90;99.90
16958;DHT22;8595;52.542;11.974;2022-09-01T04:00:13;16.90;99.90
16958;DHT22;8595;52.542;11.974;2022-09-01T04:02:46;16.90;99.90
16958;DHT22;8595;52.542;11.974;2022-09-01T04:05:15;16.90;99.90
16958;DHT22;8595;52.542;11.974;2022-09-01T04:07:42;16.90;99.90
16958;DHT22;8595;52.542;11.974;2022-09-01T04:10:10;16.90;99.90
16958;DHT22;8595;52.542;11.974;2022-09-01T04:12:37;16.80;99.90
16958;DHT22;8595;52.542;11.974;2022-09-01T04:15:05;16.70;99.90
16958;DHT22;8595;52.542;11.974;2022-09-01T04:17:33;16.60;99.90
16958;DHT22;8595;52.542;11.974;2022-09-01T04:20:18;16.50;99.90
16958;DHT22;8595;52.542;11.974;2022-09-01T04:22:46;16.50;99.90
16958;DHT22;8595;52.542;11.974;2022-09-01T04:25:15;16.40;99.90
16958;DHT22;8595;52.542;11.974;2022-09-01T04:27:42;16.40;99.90
16958;DHT22;8595;52.542;11.974;2022-09-01T04:30:12;16.40;99.90
16958;DHT22;8595;52.542;11.974;2022-09-01T04:32:39;16.30;99.90
16958;DHT22;8595;52.542;11.974;2022-09-01T04:35:08;16.30;99.90
16958;DHT22;8595;52.542;11.974;2022-09-01T04:37:41;16.30;99.90
16958;DHT22;8595;52.542;11.974;2022-09-01T04:40:09;16.30;99.90
16958;DHT22;8595;52.542;11.974;2022-09-01T04:42:37;16.30;99.90
16958;DHT22;8595;52.542;11.974;2022-09-01T04:45:05;16.30;99.90
16958;DHT22;8595;52.542;11.974;2022-09-01T04:47:35;16.20;99.90
16958;DHT22;8595;52.542;11.974;2022-09-01T04:50:09;16.20;99.90
16958;DHT22;8595;52.542;11.974;2022-09-01T04:52:39;16.10;99.90
16958;DHT22;8595;52.542;11.974;2022-09-01T04:55:07;16.10;99.90
16958;DHT22;8595;52.542;11.974;2022-09-01T04:57:42;16.00;99.90
16958;DHT22;8595;52.542;11.974;2022-09-01T05:00:13;16.00;99.90
16958;DHT22;8595;52.542;11.974;2022-09-01T05:02:47;16.00;99.90
16958;DHT22;8595;52.542;11.974;2022-09-01T05:05:19;15.90;99.90
16958;DHT22;8595;52.542;11.974;2022-09-01T05:07:46;15.90;99.90
16958;DHT22;8595;52.542;11.974;2022-09-01T05:10:17;15.90;99.90
16958;DHT22;8595;52.542;11.974;2022-09-01T05:12:44;15.90;99.90
16958;DHT22;8595;52.542;11.974;2022-09-01T05:15:12;15.80;99.90
16958;DHT22;8595;52.542;11.974;2022-09-01T05:17:39;15.80;99.90
16958;DHT22;8595;52.542;11.974;2022-09-01T05:20:08;15.90;99.90
16958;DHT22;8595;52.542;11.974;2022-09-01T05:22:37;15.90;99.90
16958;DHT22;8595;52.542;11.974;2022-09-01T05:25:06;16.10;99.90
16958;DHT22;8595;52.542;11.974;2022-09-01T05:27:39;16.00;99.90
16958;DHT22;8595;52.542;11.974;2022-09-01T05:30:09;16.00;99.90
16958;DHT22;8595;52.542;11.974;2022-09-01T05:32:36;16.10;99.90
16958;DHT22;8595;52.542;11.974;2022-09-01T05:35:05;16.00;99.90
16958;DHT22;8595;52.542;11.974;2022-09-01T05:37:33;16.10;99.90
16958;DHT22;8595;52.542;11.974;2022-09-01T05:40:02;16.10;99.90
16958;DHT22;8595;52.542;11.974;2022-09-01T05:42:29;16.10;99.90
16958;DHT22;8595;52.542;11.974;2022-09-01T05:44:56;16.10;99.90
16958;DHT22;8595;52.542;11.974;2022-09-01T05:47:24;16.00;99.90
16958;DHT22;8595;52.542;11.974;2022-09-01T05:49:51;16.10;99.90
16958;DHT22;8595;52.542;11.974;2022-09-01T05:52:20;16.10;99.90
16958;DHT22;8595;52.542;11.974;2022-09-01T05:54:50;16.10;99.90
16958;DHT22;8595;52.542;11.974;2022-09-01T05:57:18;16.10;99.90
16958;DHT22;8595;52.542;11.974;2022-09-01T05:59:45;16.20;99.90
16958;DHT22;8595;52.542;11.974;2022-09-01T06:02:18;16.30;99.90
16958;DHT22;8595;52.542;11.974;2022-09-01T06:04:46;16.30;99.90
16958;DHT22;8595;52.542;11.974;2022-09-01T06:07:13;16.30;99.90
16958;DHT22;8595;52.542;11.974;2022-09-01T06:09:42;16.40;99.90
16958;DHT22;8595;52.542;11.974;2022-09-01T06:12:10;16.40;99.90
16958;DHT22;8595;52.542;11.974;2022-09-01T06:14:43;16.40;99.90
16958;DHT22;8595;52.542;11.974;2022-09-01T06:17:10;16.40;99.90
16958;DHT22;8595;52.542;11.974;2022-09-01T06:19:40;16.40;99.90
16958;DHT22;8595;52.542;11.974;2022-09-01T06:22:07;16.40;99.90
16958;DHT22;8595;52.542;11.974;2022-09-01T06:24:35;16.40;99.90
16958;DHT22;8595;52.542;11.974;2022-09-01T06:27:04;16.40;99.90
16958;DHT22;8595;52.542;11.974;2022-09-01T06:29:31;16.50;99.90
16958;DHT22;8595;52.542;11.974;2022-09-01T06:31:59;16.60;99.90
16958;DHT22;8595;52.542;11.974;2022-09-01T06:34:27;16.50;99.90
16958;DHT22;8595;52.542;11.974;2022-09-01T06:36:53;16.60;99.90
16958;DHT22;8595;52.542;11.974;2022-09-01T06:39:20;16.70;99.90
16958;DHT22;8595;52.542;11.974;2022-09-01T06:41:49;16.70;99.90
16958;DHT22;8595;52.542;11.974;2022-09-01T06:44:17;16.80;99.90
16958;DHT22;8595;52.542;11.974;2022-09-01T06:46:46;16.80;99.90
16958;DHT22;8595;52.542;11.974;2022-09-01T06:49:14;17.00;99.90
16958;DHT22;8595;52.542;11.974;2022-09-01T06:51:41;17.00;99.90
16958;DHT22;8595;52.542;11.974;2022-09-01T06:54:08;17.10;99.90
16958;DHT22;8595;52.542;11.974;2022-09-01T06:56:38;17.10;99.90
16958;DHT22;8595;52.542;11.974;2022-09-01T06:59:05;17.20;99.90
16958;DHT22;8595;52.542;11.974;2022-09-01T07:01:32;17.30;99.90
16958;DHT22;8595;52.542;11.974;2022-09-01T07:04:00;17.40;99.90
16958;DHT22;8595;52.542;11.974;2022-09-01T07:06:28;17.50;99.90
16958;DHT22;8595;52.542;11.974;2022-09-01T07:08:57;17.60;99.90
16958;DHT22;8595;52.542;11.974;2022-09-01T07:11:28;17.60;99.90
16958;DHT22;8595;52.542;11.974;2022-09-01T07:13:57;17.60;99.90
16958;DHT22;8595;52.542;11.974;2022-09-01T07:16:27;17.70;99.90
16958;DHT22;8595;52.542;11.974;2022-09-01T07:18:57;17.80;99.90
16958;DHT22;8595;52.542;11.974;2022-09-01T07:21:26;17.90;99.90
16958;DHT22;8595;52.542;11.974;2022-09-01T07:23:54;18.00;99.90
16958;DHT22;8595;52.542;11.974;2022-09-01T07:26:22;18.00;99.90
16958;DHT22;8595;52.542;11.974;2022-09-01T07:28:50;18.10;99.90
16958;DHT22;8595;52.542;11.974;2022-09-01T07:31:18;18.20;99.90
16958;DHT22;8595;52.542;11.974;2022-09-01T07:33:46;18.30;99.90
16958;DHT22;8595;52.542;11.974;2022-09-01T07:36:13;18.40;99.90
16958;DHT22;8595;52.542;11.974;2022-09-01T07:38:40;18.50;99.90
16958;DHT22;8595;52.542;11.974;2022-09-01T07:41:10;18.50;99.90
16958;DHT22;8595;52.542;11.974;2022-09-01T07:43:38;18.60;99.90
16958;DHT22;8595;52.542;11.974;2022-09-01T07:46:09;18.70;99.90
16958;DHT22;8595;52.542;11.974;2022-09-01T07:48:37;18.80;99.90
16958;DHT22;8595;52.542;11.974;2022-09-01T07:51:04;18.90;99.90
16958;DHT22;8595;52.542;11.974;2022-09-01T07:53:34;18.90;99.90
16958;DHT22;8595;52.542;11.974;2022-09-01T07:56:05;19.00;99.90
16958;DHT22;8595;52.542;11.974;2022-09-01T07:58:37;19.10;99.90
16958;DHT22;8595;52.542;11.974;2022-09-01T08:01:06;19.20;99.90
16958;DHT22;8595;52.542;11.974;2022-09-01T08:03:33;19.40;99.90
16958;DHT22;8595;52.542;11.974;2022-09-01T08:06:02;19.40;99.90
16958;DHT22;8595;52.542;11.974;2022-09-01T08:08:31;19.50;99.90
16958;DHT22;8595;52.542;11.974;2022-09-01T08:10:58;19.80;99.90
16958;DHT22;8595;52.542;11.974;2022-09-01T08:13:24;20.80;99.90
16958;DHT22;8595;52.542;11.974;2022-09-01T08:15:53;22.20;99.90
16958;DHT22;8595;52.542;11.974;2022-09-01T08:18:20;23.20;99.90
16958;DHT22;8595;52.542;11.974;2022-09-01T08:20:47;23.70;99.90
16958;DHT22;8595;52.542;11.974;2022-09-01T08:23:16;24.00;99.90
16958;DHT22;8595;52.542;11.974;2022-09-01T08:25:45;24.20;99.90
16958;DHT22;8595;52.542;11.974;2022-09-01T08:28:13;24.70;99.90
16958;DHT22;8595;52.542;11.974;2022-09-01T08:30:41;25.00;99.90
16958;DHT22;8595;52.542;11.974;2022-09-01T08:33:10;25.40;99.90
16958;DHT22;8595;52.542;11.974;2022-09-01T08:35:38;25.60;99.90
16958;DHT22;8595;52.542;11.974;2022-09-01T08:38:05;25.80;99.90
16958;DHT22;8595;52.542;11.974;2022-09-01T08:40:32;25.60;99.90
16958;DHT22;8595;52.542;11.974;2022-09-01T08:43:10;26.00;99.90
16958;DHT22;8595;52.542;11.974;2022-09-01T08:45:46;26.40;99.90
16958;DHT22;8595;52.542;11.974;2022-09-01T08:48:18;26.40;99.90
16958;DHT22;8595;52.542;11.974;2022-09-01T08:50:49;26.60;99.90
16958;DHT22;8595;52.542;11.974;2022-09-01T08:53:24;26.80;99.90
16958;DHT22;8595;52.542;11.974;2022-09-01T08:55:55;27.00;99.90
16958;DHT22;8595;52.542;11.974;2022-09-01T08:58:22;27.20;99.90
16958;DHT22;8595;52.542;11.974;2022-09-01T09:00:53;27.40;99.90
16958;DHT22;8595;52.542;11.974;2022-09-01T09:03:28;27.60;99.90
16958;DHT22;8595;52.542;11.974;2022-09-01T09:06:06;27.60;99.90
16958;DHT22;8595;52.542;11.974;2022-09-01T09:08:50;27.90;99.90
16958;DHT22;8595;52.542;11.974;2022-09-01T09:11:42;28.20;99.90
16958;DHT22;8595;52.542;11.974;2022-09-01T09:14:19;28.10;99.90
16958;DHT22;8595;52.542;11.974;2022-09-01T09:16:53;27.60;99.50
16958;DHT22;8595;52.542;11.974;2022-09-01T09:19:25;27.50;99.90
16958;DHT22;8595;52.542;11.974;2022-09-01T09:21:55;27.50;99.90
16958;DHT22;8595;52.542;11.974;2022-09-01T09:24:26;27.90;99.70
16958;DHT22;8595;52.542;11.974;2022-09-01T09:26:55;27.70;99.10
16958;DHT22;8595;52.542;11.974;2022-09-01T09:29:23;27.70;98.20
16958;DHT22;8595;52.542;11.974;2022-09-01T09:32:01;28.00;98.40
16958;DHT22;8595;52.542;11.974;2022-09-01T09:34:32;28.30;98.70
16958;DHT22;8595;52.542;11.974;2022-09-01T09:37:01;28.60;97.60
16958;DHT22;8595;52.542;11.974;2022-09-01T09:39:41;28.80;97.30
16958;DHT22;8595;52.542;11.974;2022-09-01T09:42:10;28.70;96.70
16958;DHT22;8595;52.542;11.974;2022-09-01T09:44:41;28.80;95.40
16958;DHT22;8595;52.542;11.974;2022-09-01T09:47:09;28.90;94.40
16958;DHT22;8595;52.542;11.974;2022-09-01T09:49:37;28.80;95.30
16958;DHT22;8595;52.542;11.974;2022-09-01T09:52:16;29.10;93.50
16958;DHT22;8595;52.542;11.974;2022-09-01T09:54:59;29.70;92.90
16958;DHT22;8595;52.542;11.974;2022-09-01T09:57:28;29.30;92.20
16958;DHT22;8595;52.542;11.974;2022-09-01T09:59:59;29.40;91.90
16958;DHT22;8595;52.542;11.974;2022-09-01T10:02:30;29.50;92.50
16958;DHT22;8595;52.542;11.974;2022-09-01T10:05:00;29.50;91.20
16958;DHT22;8595;52.542;11.974;2022-09-01T10:07:30;29.30;90.70
16958;DHT22;8595;52.542;11.974;2022-09-01T10:10:01;29.30;90.90
16958;DHT22;8595;52.542;11.974;2022-09-01T10:12:28;29.80;90.10
16958;DHT22;8595;52.542;11.974;2022-09-01T10:14:59;30.30;89.20
16958;DHT22;8595;52.542;11.974;2022-09-01T10:17:29;30.20;86.40
16958;DHT22;8595;52.542;11.974;2022-09-01T10:20:00;29.60;85.80
16958;DHT22;8595;52.542;11.974;2022-09-01T10:22:33;28.70;86.00
16958;DHT22;8595;52.542;11.974;2022-09-01T10:25:00;28.10;88.10
16958;DHT22;8595;52.542;11.974;2022-09-01T10:27:29;28.60;90.00
16958;DHT22;8595;52.542;11.974;2022-09-01T10:30:10;29.20;89.10
16958;DHT22;8595;52.542;11.974;2022-09-01T10:32:41;29.40;87.50
16958;DHT22;8595;52.542;11.974;2022-09-01T10:35:18;29.50;86.90
16958;DHT22;8595;52.542;11.974;2022-09-01T10:37:49;29.80;88.00
16958;DHT22;8595;52.542;11.974;2022-09-01T10:40:19;29.90;85.00
16958;DHT22;8595;52.542;11.974;2022-09-01T10:43:26;30.30;86.50
16958;DHT22;8595;52.542;11.974;2022-09-01T10:45:54;30.60;84.60
16958;DHT22;8595;52.542;11.974;2022-09-01T10:48:25;31.30;85.60
16958;DHT22;8595;52.542;11.974;2022-09-01T10:50:59;31.50;82.60
16958;DHT22;8595;52.542;11.974;2022-09-01T10:53:41;31.40;82.30
16958;DHT22;8595;52.542;11.974;2022-09-01T10:56:10;30.90;80.90
16958;DHT22;8595;52.542;11.974;2022-09-01T10:58:48;29.90;80.80
16958;DHT22;8595;52.542;11.974;2022-09-01T11:01:15;29.20;82.60
16958;DHT22;8595;52.542;11.974;2022-09-01T11:04:00;29.30;83.80
16958;DHT22;8595;52.542;11.974;2022-09-01T11:09:25;30.20;82.10
16958;DHT22;8595;52.542;11.974;2022-09-01T11:12:26;29.80;83.10
16958;DHT22;8595;52.542;11.974;2022-09-01T11:14:56;28.80;85.10
16958;DHT22;8595;52.542;11.974;2022-09-01T11:17:24;28.00;82.80
16958;DHT22;8595;52.542;11.974;2022-09-01T11:19:55;28.20;86.60
16958;DHT22;8595;52.542;11.974;2022-09-01T11:22:27;27.60;84.80
16958;DHT22;8595;52.542;11.974;2022-09-01T11:31:10;25.70;90.00
16958;DHT22;8595;52.542;11.974;2022-09-01T11:33:49;25.20;90.70
16958;DHT22;8595;52.542;11.974;2022-09-01T11:36:26;25.10;91.70
16958;DHT22;8595;52.542;11.974;2022-09-01T11:39:02;25.60;91.30
16958;DHT22;8595;52.542;11.974;2022-09-01T11:41:33;26.70;87.70
16958;DHT22;8595;52.542;11.974;2022-09-01T11:44:06;26.60;89.90
16958;DHT22;8595;52.542;11.974;2022-09-01T11:46:37;25.90;89.10
16958;DHT22;8595;52.542;11.974;2022-09-01T11:49:25;25.50;90.80
16958;DHT22;8595;52.542;11.974;2022-09-01T11:51:53;25.80;90.60
16958;DHT22;8595;52.542;11.974;2022-09-01T11:54:22;25.80;90.50
16958;DHT22;8595;52.542;11.974;2022-09-01T11:56:49;26.10;91.00
16958;DHT22;8595;52.542;11.974;2022-09-01T11:59:30;26.10;91.50
16958;DHT22;8595;52.542;11.974;2022-09-01T12:01:57;25.70;92.20
16958;DHT22;8595;52.542;11.974;2022-09-01T12:04:29;25.90;92.30
16958;DHT22;8595;52.542;11.974;2022-09-01T12:07:00;26.00;91.50
16958;DHT22;8595;52.542;11.974;2022-09-01T12:09:42;26.20;91.90
16958;DHT22;8595;52.542;11.974;2022-09-01T12:12:27;26.00;92.20
16958;DHT22;8595;52.542;11.974;2022-09-01T12:14:58;25.90;91.70
16958;DHT22;8595;52.542;11.974;2022-09-01T12:17:25;25.60;92.30
16958;DHT22;8595;52.542;11.974;2022-09-01T12:19:52;25.40;91.80
16958;DHT22;8595;52.542;11.974;2022-09-01T12:22:19;25.20;92.00
16958;DHT22;8595;52.542;11.974;2022-09-01T12:24:49;25.30;92.00
16958;DHT22;8595;52.542;11.974;2022-09-01T12:27:17;25.10;92.10
16958;DHT22;8595;52.542;11.974;2022-09-01T12:29:44;25.20;92.60
16958;DHT22;8595;52.542;11.974;2022-09-01T12:32:12;25.30;92.20
16958;DHT22;8595;52.542;11.974;2022-09-01T12:34:43;25.50;93.00
16958;DHT22;8595;52.542;11.974;2022-09-01T12:37:17;26.70;92.90
16958;DHT22;8595;52.542;11.974;2022-09-01T12:39:46;27.40;90.70
16958;DHT22;8595;52.542;11.974;2022-09-01T12:42:25;27.90;88.90
16958;DHT22;8595;52.542;11.974;2022-09-01T12:44:55;28.90;89.50
16958;DHT22;8595;52.542;11.974;2022-09-01T12:47:44;30.10;85.90
16958;DHT22;8595;52.542;11.974;2022-09-01T12:50:34;31.10;85.40
16958;DHT22;8595;52.542;11.974;2022-09-01T12:53:17;31.60;83.20
16958;DHT22;8595;52.542;11.974;2022-09-01T12:55:55;31.50;81.20
16958;DHT22;8595;52.542;11.974;2022-09-01T12:58:27;31.40;80.00
16958;DHT22;8595;52.542;11.974;2022-09-01T13:00:57;31.60;79.80
16958;DHT22;8595;52.542;11.974;2022-09-01T13:03:24;32.00;78.40
16958;DHT22;8595;52.542;11.974;2022-09-01T13:05:55;31.70;78.00
16958;DHT22;8595;52.542;11.974;2022-09-01T13:08:25;30.60;76.80
16958;DHT22;8595;52.542;11.974;2022-09-01T13:10:54;29.60;78.60
16958;DHT22;8595;52.542;11.974;2022-09-01T13:13:23;28.50;78.90
16958;DHT22;8595;52.542;11.974;2022-09-01T13:15:53;28.90;79.50
16958;DHT22;8595;52.542;11.974;2022-09-01T13:18:21;29.30;79.00
16958;DHT22;8595;52.542;11.974;2022-09-01T13:20:50;30.20;80.40
16958;DHT22;8595;52.542;11.974;2022-09-01T13:23:17;30.90;78.70
16958;DHT22;8595;52.542;11.974;2022-09-01T13:25:44;31.40;78.60
16958;DHT22;8595;52.542;11.974;2022-09-01T13:28:12;31.50;78.00
16958;DHT22;8595;52.542;11.974;2022-09-01T13:30:40;32.20;77.00
16958;DHT22;8595;52.542;11.974;2022-09-01T13:33:10;32.40;77.20
16958;DHT22;8595;52.542;11.974;2022-09-01T13:35:37;32.70;74.70
16958;DHT22;8595;52.542;11.974;2022-09-01T13:38:04;33.20;74.10
16958;DHT22;8595;52.542;11.974;2022-09-01T13:40:31;32.30;73.50
16958;DHT22;8595;52.542;11.974;2022-09-01T13:42:58;31.10;72.90
16958;DHT22;8595;52.542;11.974;2022-09-01T13:45:24;30.00;73.90
16958;DHT22;8595;52.542;11.974;2022-09-01T13:47:51;28.90;75.00
16958;DHT22;8595;52.542;11.974;2022-09-01T13:50:21;28.30;76.70
16958;DHT22;8595;52.542;11.974;2022-09-01T13:52:50;27.60;77.90
16958;DHT22;8595;52.542;11.974;2022-09-01T13:55:20;27.10;78.70
16958;DHT22;8595;52.542;11.974;2022-09-01T13:57:47;27.10;80.20
16958;DHT22;8595;52.542;11.974;2022-09-01T14:00:16;26.90;81.00
16958;DHT22;8595;52.542;11.974;2022-09-01T14:02:45;27.00;82.30
16958;DHT22;8595;52.542;11.974;2022-09-01T14:05:15;27.30;80.60
16958;DHT22;8595;52.542;11.974;2022-09-01T14:07:44;27.10;80.90
16958;DHT22;8595;52.542;11.974;2022-09-01T14:10:11;27.10;80.50
16958;DHT22;8595;52.542;11.974;2022-09-01T14:12:38;27.90;80.50
16958;DHT22;8595;52.542;11.974;2022-09-01T14:15:06;28.90;79.30
16958;DHT22;8595;52.542;11.974;2022-09-01T14:17:33;29.70;77.40
16958;DHT22;8595;52.542;11.974;2022-09-01T14:20:00;30.50;77.30
16958;DHT22;8595;52.542;11.974;2022-09-01T14:22:27;31.20;77.00
16958;DHT22;8595;52.542;11.974;2022-09-01T14:24:55;31.10;76.60
16958;DHT22;8595;52.542;11.974;2022-09-01T14:27:22;31.30;75.90
16958;DHT22;8595;52.542;11.974;2022-09-01T14:29:48;31.50;75.40
16958;DHT22;8595;52.542;11.974;2022-09-01T14:32:16;31.90;75.50
16958;DHT22;8595;52.542;11.974;2022-09-01T14:34:43;31.10;76.50
16958;DHT22;8595;52.542;11.974;2022-09-01T14:37:09;30.10;77.40
16958;DHT22;8595;52.542;11.974;2022-09-01T14:39:36;28.90;79.10
16958;DHT22;8595;52.542;11.974;2022-09-01T14:42:05;28.10;80.40
16958;DHT22;8595;52.542;11.974;2022-09-01T14:44:35;27.50;80.80
16958;DHT22;8595;52.542;11.974;2022-09-01T14:47:02;27.10;82.10
16958;DHT22;8595;52.542;11.974;2022-09-01T14:49:31;27.00;83.70
16958;DHT22;8595;52.542;11.974;2022-09-01T14:52:01;27.00;83.50
16958;DHT22;8595;52.542;11.974;2022-09-01T14:54:31;27.50;84.80
16958;DHT22;8595;52.542;11.974;2022-09-01T14:56:58;27.70;82.90
16958;DHT22;8595;52.542;11.974;2022-09-01T14:59:26;27.50;83.40
16958;DHT22;8595;52.542;11.974;2022-09-01T15:01:53;27.40;83.60
16958;DHT22;8595;52.542;11.974;2022-09-01T15:04:20;27.30;84.60
16958;DHT22;8595;52.542;11.974;2022-09-01T15:06:47;26.70;84.10
16958;DHT22;8595;52.542;11.974;2022-09-01T15:09:13;26.50;85.20
16958;DHT22;8595;52.542;11.974;2022-09-01T15:11:41;26.20;86.00
16958;DHT22;8595;52.542;11.974;2022-09-01T15:14:08;25.90;85.50
16958;DHT22;8595;52.542;11.974;2022-09-01T15:16:37;25.70;85.80
16958;DHT22;8595;52.542;11.974;2022-09-01T15:19:06;25.70;87.10
16958;DHT22;8595;52.542;11.974;2022-09-01T15:21:34;25.80;88.50
16958;DHT22;8595;52.542;11.974;2022-09-01T15:24:02;26.30;88.00
16958;DHT22;8595;52.542;11.974;2022-09-01T15:26:30;27.20;85.90
16958;DHT22;8595;52.542;11.974;2022-09-01T15:28:57;28.00;85.00
16958;DHT22;8595;52.542;11.974;2022-09-01T15:31:24;28.50;84.40
16958;DHT22;8595;52.542;11.974;2022-09-01T15:33:55;28.80;82.70
16958;DHT22;8595;52.542;11.974;2022-09-01T15:36:23;28.80;82.50
16958;DHT22;8595;52.542;11.974;2022-09-01T15:38:50;29.00;83.00
16958;DHT22;8595;52.542;11.974;2022-09-01T15:41:19;29.00;80.40
16958;DHT22;8595;52.542;11.974;2022-09-01T15:43:46;29.30;80.40
16958;DHT22;8595;52.542;11.974;2022-09-01T15:46:14;29.70;80.70
16958;DHT22;8595;52.542;11.974;2022-09-01T15:48:41;29.90;80.20
16958;DHT22;8595;52.542;11.974;2022-09-01T15:51:29;30.20;80.70
16958;DHT22;8595;52.542;11.974;2022-09-01T15:53:59;30.60;79.30
16958;DHT22;8595;52.542;11.974;2022-09-01T15:56:27;31.00;79.80